createdAt,value
2023-01-23T00:04:27.441Z,10.00
2023-01-23T00:09:32.100Z,9.93
2023-01-23T00:14:37.392Z,9.57
2023-01-23T00:19:41.337Z,8.75
2023-01-23T00:24:45.219Z,8.73
2023-01-23T00:29:53.324Z,9.40
2023-01-23T00:34:57.269Z,10.07
2023-01-23T00:40:01.225Z,8.52
2023-01-23T00:45:07.989Z,9.52
2023-01-23T00:50:12.992Z,9.30
2023-01-23T00:55:17.014Z,8.63
2023-01-23T01:00:23.275Z,8.50
2023-01-23T01:05:27.369Z,8.38
2023-01-23T01:10:32.981Z,8.38
2023-01-23T01:15:39.195Z,9.05
2023-01-23T01:20:43.839Z,8.23
2023-01-23T01:25:48.432Z,9.10
2023-01-23T01:30:53.923Z,8.50
2023-01-23T01:35:58.018Z,9.52
2023-01-23T01:41:01.970Z,9.73
2023-01-23T01:46:18.123Z,9.45
2023-01-23T01:51:30.169Z,8.75
2023-01-23T01:56:38.584Z,7.93
2023-01-23T02:01:48.798Z,8.73
2023-01-23T02:06:55.269Z,8.73
2023-01-23T02:11:59.281Z,9.52
2023-01-23T02:17:04.758Z,8.20
2023-01-23T02:22:25.264Z,8.40
2023-01-23T02:27:30.817Z,8.70
2023-01-23T02:32:38.131Z,7.78
2023-01-23T02:37:53.327Z,8.57
2023-01-23T02:43:01.069Z,9.13
2023-01-23T02:48:06.270Z,8.00
2023-01-23T02:53:11.959Z,9.13
2023-01-23T02:58:36.428Z,8.23
2023-01-23T03:03:43.484Z,9.55
2023-01-23T03:14:06.316Z,8.05
2023-01-23T03:19:11.644Z,8.93
2023-01-23T03:24:16.279Z,8.95
2023-01-23T03:29:43.584Z,9.77
2023-01-23T03:34:51.403Z,9.35
2023-01-23T03:40:19.030Z,8.60
2023-01-23T03:45:26.641Z,9.50
2023-01-23T03:50:31.561Z,9.40
2023-01-23T03:55:35.684Z,8.77
2023-01-23T04:00:41.757Z,9.32
2023-01-23T04:05:46.065Z,9.88
2023-01-23T04:10:53.465Z,9.63
2023-01-23T04:16:08.424Z,10.00
2023-01-23T04:21:13.395Z,9.48
2023-01-23T04:26:17.683Z,9.30
2023-01-23T04:31:23.221Z,9.85
2023-01-23T04:36:27.693Z,9.85
2023-01-23T04:41:33.128Z,10.20
2023-01-23T04:46:47.591Z,8.95
2023-01-23T04:51:53.514Z,10.63
2023-01-23T04:57:01.635Z,10.30
2023-01-23T05:02:08.498Z,9.45
2023-01-23T05:07:18.274Z,10.15
2023-01-23T05:12:39.227Z,8.75
2023-01-23T05:17:45.145Z,10.02
2023-01-23T05:22:53.377Z,10.30
2023-01-23T05:28:10.267Z,10.27
2023-01-23T05:33:22.533Z,9.55
2023-01-23T05:38:29.388Z,9.85
2023-01-23T05:43:33.473Z,9.77
2023-01-23T05:48:58.563Z,9.80
2023-01-23T05:54:03.743Z,10.57
2023-01-23T05:59:08.252Z,9.13
2023-01-23T06:04:22.662Z,10.55
2023-01-23T06:09:41.166Z,10.38
2023-01-23T06:14:45.296Z,11.02
2023-01-23T06:19:51.514Z,10.27
2023-01-23T06:24:55.523Z,10.85
2023-01-23T06:30:02.289Z,10.88
2023-01-23T06:35:11.060Z,11.38
2023-01-23T06:40:25.527Z,10.63
2023-01-23T06:45:47.309Z,11.27
2023-01-23T06:50:55.331Z,11.30
2023-01-23T06:56:01.886Z,11.15
2023-01-23T07:01:16.047Z,10.38
2023-01-23T07:06:44.557Z,10.85
2023-01-23T07:11:56.540Z,10.65
2023-01-23T07:17:06.149Z,10.57
2023-01-23T07:22:11.620Z,10.55
2023-01-23T07:27:20.105Z,10.73
2023-01-23T07:32:24.264Z,10.13
2023-01-23T07:37:32.443Z,9.95
2023-01-23T07:42:36.506Z,12.02
2023-01-23T07:47:41.266Z,11.02
2023-01-23T07:52:46.850Z,11.25
2023-01-23T07:57:53.897Z,11.68
2023-01-23T08:03:00.631Z,10.48
2023-01-23T08:08:13.380Z,10.95
2023-01-23T08:13:18.904Z,11.55
2023-01-23T08:18:22.942Z,11.50
2023-01-23T08:23:28.788Z,10.82
2023-01-23T08:28:32.859Z,12.70
2023-01-23T08:33:38.023Z,10.73
2023-01-23T08:38:45.675Z,11.52
2023-01-23T08:43:49.760Z,12.15
2023-01-23T08:48:53.600Z,11.43
2023-01-23T08:53:58.971Z,12.25
2023-01-23T08:59:02.910Z,11.13
2023-01-23T09:04:08.332Z,11.65
2023-01-23T09:09:13.575Z,11.13
2023-01-23T09:14:20.542Z,10.75
2023-01-23T09:19:24.771Z,10.02
2023-01-23T09:24:30.277Z,11.32
2023-01-23T09:29:34.295Z,12.20
2023-01-23T09:34:49.054Z,11.57
2023-01-23T09:39:55.361Z,11.38
2023-01-23T09:45:06.237Z,10.60
2023-01-23T09:50:19.667Z,11.27
2023-01-23T09:55:36.307Z,12.13
2023-01-23T10:00:40.527Z,10.57
2023-01-23T10:05:54.856Z,10.70
2023-01-23T10:11:04.078Z,11.32
2023-01-23T10:16:23.638Z,11.13
2023-01-23T10:21:34.747Z,11.48
2023-01-23T10:26:43.666Z,10.43
2023-01-23T10:31:52.780Z,11.50
2023-01-23T10:37:12.279Z,10.77
2023-01-23T10:42:23.857Z,11.15
2023-01-23T10:47:35.717Z,10.60
2023-01-23T10:52:42.982Z,11.15
2023-01-23T10:57:52.426Z,10.95
2023-01-23T11:02:56.442Z,10.07
2023-01-23T11:08:00.542Z,10.07
2023-01-23T11:13:29.812Z,9.57
2023-01-23T11:18:35.625Z,10.30
2023-01-23T11:23:41.939Z,9.73
2023-01-23T11:28:51.485Z,9.27
2023-01-23T11:34:00.402Z,9.65
2023-01-23T11:39:17.085Z,9.40
2023-01-23T11:44:26.677Z,9.52
2023-01-23T11:49:52.836Z,9.88
2023-01-23T11:55:16.797Z,9.73
2023-01-23T12:00:33.109Z,8.60
2023-01-23T12:06:17.649Z,10.15
2023-01-23T12:11:25.642Z,8.87
2023-01-23T12:16:48.245Z,8.40
2023-01-23T12:22:01.481Z,9.25
2023-01-23T12:27:20.274Z,9.63
2023-01-23T12:32:45.715Z,10.38
2023-01-23T12:38:07.190Z,9.95
2023-01-23T12:43:15.880Z,9.95
2023-01-23T12:48:29.746Z,10.02
2023-01-23T12:53:45.433Z,8.75
2023-01-23T12:59:10.884Z,10.52
2023-01-23T13:04:42.690Z,9.20
2023-01-23T13:10:03.380Z,10.77
2023-01-23T13:15:40.109Z,9.50
2023-01-23T13:21:15.868Z,8.88
2023-01-23T13:26:37.810Z,8.57
2023-01-23T13:31:45.562Z,8.90
2023-01-23T13:36:52.141Z,9.10
2023-01-23T13:42:47.733Z,8.95
2023-01-23T14:21:41.009Z,9.50
2023-01-23T14:26:53.041Z,9.00
2023-01-23T14:32:23.538Z,10.43
2023-01-23T14:37:52.839Z,10.15
2023-01-23T14:43:25.345Z,9.18
2023-01-23T14:48:38.902Z,9.40
2023-01-23T14:54:10.441Z,9.95
2023-01-23T14:59:29.425Z,9.82
2023-01-23T15:04:44.848Z,9.43
2023-01-23T15:09:49.054Z,8.85
2023-01-23T15:14:56.722Z,9.35
2023-01-23T15:20:00.661Z,9.43
2023-01-23T15:25:28.329Z,9.27
2023-01-23T15:30:48.658Z,9.60
2023-01-23T15:35:52.738Z,8.80
2023-01-23T15:40:57.468Z,8.98
2023-01-23T15:46:03.070Z,8.38
2023-01-23T15:51:07.314Z,9.05
2023-01-23T15:56:29.097Z,8.95
2023-01-23T16:01:34.331Z,9.35
2023-01-23T16:06:39.632Z,10.15
2023-01-23T16:11:43.493Z,10.90
2023-01-23T16:16:48.847Z,9.02
2023-01-23T16:22:04.177Z,9.52
2023-01-23T16:27:17.634Z,9.27
2023-01-23T16:32:23.082Z,8.50
2023-01-23T16:37:27.265Z,8.68
2023-01-23T16:42:32.943Z,9.43
2023-01-23T16:47:38.489Z,8.80
2023-01-23T16:52:43.620Z,9.18
2023-01-23T16:57:47.991Z,8.43
2023-01-23T17:02:58.655Z,8.73
2023-01-23T17:08:09.116Z,9.25
2023-01-23T17:13:14.381Z,8.80
2023-01-23T17:18:33.919Z,8.98
2023-01-23T17:23:38.103Z,9.18
2023-01-23T17:28:42.146Z,10.60
2023-01-23T17:33:58.599Z,11.07
2023-01-23T17:39:03.004Z,9.82
2023-01-23T17:44:07.246Z,10.02
2023-01-23T17:49:29.980Z,8.40
2023-01-23T17:54:34.098Z,9.65
2023-01-23T17:59:39.730Z,9.02
2023-01-23T18:04:53.914Z,8.38
2023-01-23T18:09:59.902Z,9.32
2023-01-23T18:15:12.438Z,9.48
2023-01-23T18:20:24.365Z,8.65
2023-01-23T18:25:31.218Z,8.38
2023-01-23T18:30:43.707Z,9.43
2023-01-23T18:36:01.679Z,8.88
2023-01-23T18:41:17.568Z,9.10
2023-01-23T18:46:24.164Z,8.68
2023-01-23T18:51:46.611Z,8.85
2023-01-23T18:57:07.819Z,9.88
2023-01-23T19:02:26.873Z,9.45
2023-01-23T19:07:32.695Z,10.77
2023-01-23T19:12:52.436Z,9.73
2023-01-23T19:18:14.662Z,9.25
2023-01-23T19:23:38.694Z,9.23
2023-01-23T19:28:43.447Z,8.40
2023-01-23T19:33:50.646Z,10.98
2023-01-23T19:39:03.120Z,9.45
2023-01-23T19:44:30.315Z,9.40
2023-01-23T19:49:34.124Z,9.77
2023-01-23T19:54:37.818Z,9.88
2023-01-23T19:59:42.901Z,9.65
2023-01-23T20:04:47.378Z,8.75
2023-01-23T20:09:51.046Z,8.80
2023-01-23T20:14:57.541Z,9.10
2023-01-23T20:20:01.265Z,9.13
2023-01-23T20:25:05.621Z,9.18
2023-01-23T20:30:14.567Z,8.25
2023-01-23T20:35:18.477Z,8.52
2023-01-23T20:40:22.188Z,8.60
2023-01-23T20:45:27.835Z,8.63
2023-01-23T20:50:31.527Z,9.27
2023-01-23T20:55:35.588Z,9.07
2023-01-23T21:00:41.040Z,8.65
2023-01-23T21:05:44.893Z,9.85
2023-01-23T21:10:48.727Z,9.13
2023-01-23T21:16:00.859Z,8.80
2023-01-23T21:21:07.063Z,9.48
2023-01-23T21:26:10.900Z,9.37
2023-01-23T21:31:18.013Z,9.25
2023-01-23T21:36:24.604Z,9.35
2023-01-23T21:41:28.370Z,9.85
2023-01-23T21:46:33.482Z,10.63
2023-01-23T21:51:38.036Z,8.68
2023-01-23T21:56:41.945Z,9.25
2023-01-23T22:01:47.061Z,10.93
2023-01-23T22:06:54.855Z,11.57
2023-01-23T22:11:58.881Z,9.65
2023-01-23T22:17:05.319Z,9.73
2023-01-23T22:22:09.302Z,10.90
2023-01-23T22:27:13.014Z,11.10
2023-01-23T22:32:18.581Z,10.70
2023-01-23T22:37:22.299Z,10.48
2023-01-23T22:42:26.002Z,10.23
2023-01-23T22:47:31.131Z,9.88
2023-01-23T22:52:35.045Z,10.88
2023-01-23T22:57:38.797Z,11.30
2023-01-23T23:02:43.933Z,10.57
2023-01-23T23:07:47.595Z,11.57
2023-01-23T23:12:51.306Z,10.35
2023-01-23T23:17:56.436Z,10.90
2023-01-23T23:23:00.702Z,11.30
2023-01-23T23:28:05.194Z,10.27
2023-01-23T23:33:10.621Z,10.52
2023-01-23T23:38:14.610Z,10.05
2023-01-23T23:43:18.293Z,9.55
2023-01-23T23:48:24.100Z,9.45
2023-01-23T23:53:27.758Z,9.40
2023-01-23T23:58:31.535Z,10.25
